Details From UKKK - Zhuliany Intl
To UKDE - Zaporizhzhia Intl
Flight Number -
Tags Generated
Created
Modified
Stats Distance 245 nm / 454 km
Max Altitude 0 ft / 0 m
Waypoints 3
Social Downloads 1
Likes 0
Share VATSIM

Download

Looking for another format? Having issues loading an existing format? Contact us
Advertisement - Login to hide

Notes

Generated

Route

UKKK RUBES UKDE

ID Type Via Altitude Latitude Longitude Leg Dist Tot Dist Heading (true) Name
O UKKK APT - 0 ft / 0 m 50.40113˚ 30.43699˚ - 0 nm - -
RUBES FIX - 0 ft / 0 m 47.86647˚ 35.31503˚ 244 nm 244 nm 127° / 130° -
O UKDE APT - 0 ft / 0 m 47.85666˚ 35.30911˚ 0 nm 245 nm 202° / 202° -

Altitude Profile

Advertisement - Login to hide

Weather


0- 5 10 15 20 25 30 35+ Temperature / ° C

Clouds and Precipitation
Forecast for 2017-12-15 06:00 UTC. Updated 2 hours ago

Ground ~20,000 ft ~40,000 ft Winds

UKKK

Details ICAO UKKK (IEV)
Name ZHULIANY INTL
Region Ukraine
Timezone Europe/Kiev (UTC+2.0)
Stats Elevation 586 ft / 179 m (AMSL)
Location 50.401694° 30.449697°
Runways 1
Magnetic Variation 7.597° E

METAR

UKKK 150300Z 25003MPS 210V270 2400 BR OVC002 01/01 Q1007 R26/290154 TEMPO 1000 BR OVC001

Decode

TAF

TAF TAF UKKK 142308Z 1500/1524 20003G08MPS 2000 BR OVC003 TEMPO 1500/1508 0400 -DZ FG OVC001 BECMG 1508/1510 18005G11MPS 5000 BR OVC005 TEMPO 1510/1524 16007G13MPS 2100 -SHRASN BKN003 SCT010CB TX05/1515Z TN01/1500Z

Decode

Departure Runways

ID Width Length Bearing (true) Bearing (mag) Surface Threshold Offset Overrun Length
08 161 ft / 49 m 5,926 ft / 1,806 m 86.02° 78.42° Concrete 0 ft / 0 m 0 ft / 0 m
26 161 ft / 49 m 5,926 ft / 1,806 m 266.04° 258.44° Concrete 0 ft / 0 m 1,132 ft / 345 m

UKDE

Details ICAO UKDE (OZH)
Name ZAPORIZHZHIA INTL
Region Ukraine
Timezone Europe/Zaporozhye (UTC+2.0)
Stats Elevation 373 ft / 114 m (AMSL)
Location 47.867005° 35.315693°
Runways 1
Magnetic Variation 7.730° E

METAR

UKDE 150300Z 21003MPS 2200 BR OVC007 08/08 Q1010 R20/290748 NOSIG

Decode

TAF

Not found

Destination Runways

ID Width Length Bearing (true) Bearing (mag) Surface Threshold Offset Overrun Length
02 138 ft / 42 m 8,211 ft / 2,503 m 23.09° 15.36° Concrete 0 ft / 0 m 145 ft / 44 m
20 138 ft / 42 m 8,211 ft / 2,503 m 203.10° 195.37° Concrete 0 ft / 0 m 145 ft / 44 m

Approach Navaids

Runway Type Ident Frequency Range Bearing (true) Bearing (mag) Slope Elevation
02 Localiser IZA 110.30 MHz 18 nm / 33 km 23.43° 15.70° - 373 ft / 114 m (AMSL)
02 Glidescope IZA 110.30 MHz 10 nm / 19 km 23.10° 15.37° 2.70° 373 ft / 114 m (AMSL)
20 Localiser IZP 111.70 MHz 18 nm / 33 km 202.39° 194.66° - 373 ft / 114 m (AMSL)
20 Glidescope IZP 111.70 MHz 10 nm / 19 km 203.10° 195.37° 2.70° 373 ft / 114 m (AMSL)

Popular Alternatives